Time;durP1;ratioP1;P1;durP2;ratioP2;P2;SDS_P1;SDS_P2;PMS_P1;PMS_P2;Temp;Humidity;BMP_temperature;BMP_pressure;BME280_temperature;BME280_humidity;BME280_pressure;Samples;Min_cycle;Max_cycle;Signal;HPM_P1;HPM_P2
2022/07/28 00:00:52;;;;;;;0.60;0.40;;;23.10;54.60;;;;;;6192703;28;20027;-68
2022/07/28 00:03:53;;;;;;;0.45;0.40;;;23.10;54.60;;;;;;6192979;28;20035;-68
2022/07/28 00:06:53;;;;;;;0.52;0.30;;;23.10;54.60;;;;;;6178958;28;20429;-68
2022/07/28 00:09:54;;;;;;;0.65;0.40;;;23.00;54.60;;;;;;6169208;28;20038;-68
2022/07/28 00:12:54;;;;;;;0.95;0.40;;;23.10;54.70;;;;;;6189940;28;20493;-68
2022/07/28 00:15:55;;;;;;;0.73;0.43;;;23.10;54.70;;;;;;6188303;28;20098;-68
2022/07/28 00:18:56;;;;;;;0.60;0.40;;;23.10;54.70;;;;;;6168779;28;20026;-68
2022/07/28 00:21:56;;;;;;;0.85;0.57;;;23.00;54.60;;;;;;6180321;28;20041;-67
2022/07/28 00:24:57;;;;;;;0.60;0.40;;;23.10;54.70;;;;;;6191901;28;20093;-68
2022/07/28 00:27:58;;;;;;;0.57;0.55;;;23.10;54.70;;;;;;6192659;28;20022;-68
2022/07/28 00:30:58;;;;;;;0.70;0.60;;;23.00;54.70;;;;;;6192474;28;20054;-68
2022/07/28 00:33:59;;;;;;;0.40;0.40;;;23.00;54.70;;;;;;6191999;28;20030;-68
2022/07/28 00:36:59;;;;;;;0.20;0.20;;;23.10;54.70;;;;;;6181685;28;20110;-68
2022/07/28 00:40:00;;;;;;;0.40;0.35;;;23.00;54.70;;;;;;6174446;28;20041;-68
2022/07/28 00:43:01;;;;;;;0.40;0.40;;;23.00;54.70;;;;;;6173894;28;20419;-68
2022/07/28 00:46:02;;;;;;;0.50;0.40;;;23.10;54.70;;;;;;6169590;28;20026;-68
2022/07/28 00:49:03;;;;;;;0.60;0.45;;;23.10;54.80;;;;;;6191525;28;20042;-68
2022/07/28 00:52:06;;;;;;;1.17;0.47;;;23.00;54.70;;;;;;6183202;28;20775;-68
2022/07/28 00:55:07;;;;;;;0.52;0.40;;;23.00;54.70;;;;;;6181013;28;20041;-68
2022/07/28 00:58:08;;;;;;;0.55;0.40;;;23.00;54.80;;;;;;6191566;28;20023;-68
2022/07/28 01:01:10;;;;;;;0.60;0.40;;;23.00;54.80;;;;;;6191730;28;20430;-68
2022/07/28 01:04:11;;;;;;;0.50;0.50;;;23.00;54.80;;;;;;6167498;28;20560;-67
2022/07/28 01:07:22;;;;;;;0.40;0.30;;;23.00;54.80;;;;;;6175384;28;20030;-68
2022/07/28 01:10:39;;;;;;;0.90;0.40;;;23.00;54.80;;;;;;6191586;28;20027;-68
2022/07/28 01:13:54;;;;;;;0.38;0.30;;;23.00;54.80;;;;;;6172178;28;20094;-68
2022/07/28 01:17:13;;;;;;;0.47;0.40;;;23.00;54.80;;;;;;6172288;28;20045;-68
2022/07/28 01:20:35;;;;;;;0.68;0.43;;;23.00;54.80;;;;;;6191640;28;20029;-68
2022/07/28 01:24:02;;;;;;;0.70;0.40;;;23.00;55.50;;;;;;6173556;28;20041;-68
2022/07/28 01:27:15;;;;;;;0.32;0.32;;;23.00;54.80;;;;;;6171351;28;20030;-68
2022/07/28 01:30:38;;;;;;;0.63;0.47;;;23.00;54.80;;;;;;6191024;28;20026;-68
2022/07/28 01:33:47;;;;;;;0.75;0.50;;;23.00;54.80;;;;;;6174809;28;20078;-68
2022/07/28 01:36:58;;;;;;;0.43;0.30;;;23.00;54.80;;;;;;6168409;28;20063;-67
2022/07/28 01:40:05;;;;;;;0.30;0.30;;;23.00;54.80;;;;;;6184886;28;20031;-67
2022/07/28 01:43:10;;;;;;;0.40;0.40;;;23.00;54.80;;;;;;6177553;28;20039;-68
2022/07/28 01:46:12;;;;;;;0.32;0.30;;;23.00;54.80;;;;;;6191048;28;20153;-68
2022/07/28 01:49:14;;;;;;;0.30;0.30;;;23.00;54.90;;;;;;6171820;28;20058;-67
2022/07/28 01:52:17;;;;;;;0.38;0.30;;;23.00;54.90;;;;;;6169472;28;20027;-67
2022/07/28 01:55:19;;;;;;;0.40;0.40;;;23.00;54.90;;;;;;6190991;28;20440;-67
2022/07/28 01:58:23;;;;;;;0.20;0.20;;;23.00;54.90;;;;;;6191186;28;20505;-68
2022/07/28 02:01:26;;;;;;;0.50;0.40;;;23.00;54.90;;;;;;6190916;28;20045;-68
2022/07/28 02:04:27;;;;;;;0.68;0.30;;;23.00;54.90;;;;;;6190716;28;20038;-68
2022/07/28 02:07:30;;;;;;;0.30;0.30;;;23.00;54.90;;;;;;6188677;28;20515;-68
2022/07/28 02:10:33;;;;;;;0.68;0.47;;;23.00;54.90;;;;;;6166655;28;20398;-68
2022/07/28 02:13:34;;;;;;;0.30;0.30;;;23.00;54.90;;;;;;6177270;28;20038;-68
2022/07/28 02:16:36;;;;;;;0.52;0.35;;;23.00;54.90;;;;;;6190870;28;20057;-68
2022/07/28 02:19:39;;;;;;;0.52;0.43;;;23.00;54.90;;;;;;6172604;28;20385;-68
2022/07/28 02:22:41;;;;;;;0.25;0.20;;;23.00;54.90;;;;;;6168489;28;20142;-68
2022/07/28 02:25:43;;;;;;;0.30;0.30;;;23.00;55.00;;;;;;6190595;28;20220;-68
2022/07/28 02:28:46;;;;;;;0.68;0.50;;;23.00;55.00;;;;;;6190242;28;20393;-68
2022/07/28 02:32:18;;;;;;;1.30;0.50;;;23.00;54.90;;;;;;6184187;28;20466;-67
2022/07/28 02:35:29;;;;;;;0.38;0.38;;;23.00;55.00;;;;;;6145673;28;20043;-68
2022/07/28 02:38:37;;;;;;;0.55;0.45;;;23.00;55.00;;;;;;6182076;28;20018;-68
2022/07/28 02:41:41;;;;;;;0.50;0.40;;;23.00;55.00;;;;;;6185955;28;20366;-68
2022/07/28 02:44:46;;;;;;;0.28;0.28;;;23.00;55.00;;;;;;6175445;28;20035;-67
2022/07/28 02:47:52;;;;;;;0.52;0.40;;;23.00;55.00;;;;;;6170557;28;20026;-68
2022/07/28 02:50:56;;;;;;;0.68;0.32;;;23.00;55.00;;;;;;6194698;28;20121;-68
2022/07/28 02:53:58;;;;;;;0.60;0.30;;;23.00;55.00;;;;;;6191518;28;20121;-68
2022/07/28 02:56:59;;;;;;;0.30;0.30;;;23.00;55.00;;;;;;6170716;28;20022;-68
2022/07/28 03:00:00;;;;;;;0.73;0.40;;;23.00;55.10;;;;;;6185797;28;20026;-68
2022/07/28 03:03:03;;;;;;;0.43;0.40;;;23.00;55.00;;;;;;6194103;28;20508;-68
2022/07/28 03:06:04;;;;;;;0.65;0.50;;;23.00;55.10;;;;;;6170968;28;20035;-68
2022/07/28 03:09:07;;;;;;;0.73;0.40;;;23.00;55.00;;;;;;6176806;28;20034;-68
2022/07/28 03:12:09;;;;;;;0.68;0.57;;;23.00;55.00;;;;;;6194426;28;20030;-68
2022/07/28 03:15:09;;;;;;;1.25;0.52;;;23.00;55.00;;;;;;6179133;28;20069;-68
2022/07/28 03:18:10;;;;;;;0.50;0.32;;;23.00;55.00;;;;;;6170503;28;20037;-68
2022/07/28 03:21:11;;;;;;;0.30;0.25;;;23.00;55.10;;;;;;6192222;28;20022;-68
2022/07/28 03:24:12;;;;;;;0.40;0.30;;;23.00;55.10;;;;;;6191310;28;20034;-68
2022/07/28 03:27:33;;;;;;;0.32;0.30;;;23.00;55.10;;;;;;6194292;28;20500;-68
2022/07/28 03:30:41;;;;;;;0.35;0.30;;;23.00;55.10;;;;;;6193133;28;20053;-68
2022/07/28 03:33:41;;;;;;;1.15;0.50;;;23.00;55.10;;;;;;6192733;28;20112;-68
2022/07/28 03:36:45;;;;;;;0.20;0.20;;;23.00;55.10;;;;;;6169469;28;20389;-68
2022/07/28 03:39:49;;;;;;;0.40;0.40;;;23.00;55.10;;;;;;6172911;28;20011;-68
2022/07/28 03:42:51;;;;;;;0.32;0.30;;;23.00;55.10;;;;;;6169565;28;20038;-68
2022/07/28 03:45:51;;;;;;;0.75;0.50;;;23.00;55.10;;;;;;6186031;28;20022;-68
2022/07/28 03:48:52;;;;;;;0.30;0.30;;;23.00;55.20;;;;;;6193096;28;20516;-68
2022/07/28 03:51:53;;;;;;;0.32;0.30;;;23.00;55.10;;;;;;6168408;28;20566;-68
2022/07/28 03:54:53;;;;;;;0.63;0.35;;;23.00;55.20;;;;;;6181828;28;20331;-67
2022/07/28 03:57:55;;;;;;;0.43;0.30;;;23.00;55.10;;;;;;6191957;28;20027;-68
2022/07/28 04:00:57;;;;;;;0.93;0.40;;;23.00;55.20;;;;;;6177656;28;20037;-68
2022/07/28 04:03:57;;;;;;;0.32;0.30;;;23.00;55.20;;;;;;6168866;28;20039;-68
2022/07/28 04:06:58;;;;;;;0.70;0.35;;;23.00;55.20;;;;;;6191308;28;20137;-68
2022/07/28 04:09:59;;;;;;;0.90;0.35;;;23.00;55.20;;;;;;6186824;28;20037;-68
2022/07/28 04:12:59;;;;;;;0.43;0.30;;;23.00;55.20;;;;;;6168586;28;20308;-68
2022/07/28 04:16:00;;;;;;;0.50;0.40;;;23.00;55.20;;;;;;6182139;28;20030;-68
2022/07/28 04:19:00;;;;;;;0.40;0.32;;;23.00;55.20;;;;;;6192869;28;20035;-68
2022/07/28 04:22:01;;;;;;;0.30;0.30;;;23.00;55.20;;;;;;6171687;28;20166;-68
2022/07/28 04:25:02;;;;;;;0.50;0.40;;;23.00;55.20;;;;;;6187380;28;20053;-68
2022/07/28 04:28:03;;;;;;;0.65;0.40;;;23.00;55.20;;;;;;6193029;28;20065;-68
2022/07/28 04:31:04;;;;;;;0.40;0.30;;;23.00;55.20;;;;;;6180066;28;20027;-68
2022/07/28 04:34:04;;;;;;;0.55;0.30;;;23.00;55.20;;;;;;6167936;28;20027;-68
2022/07/28 04:37:05;;;;;;;0.40;0.40;;;23.00;55.20;;;;;;6190710;28;20025;-67
2022/07/28 04:40:08;;;;;;;0.40;0.30;;;23.00;55.20;;;;;;6187902;28;20022;-68
2022/07/28 04:43:11;;;;;;;0.57;0.30;;;23.00;55.20;;;;;;6192022;28;20022;-68
2022/07/28 04:46:12;;;;;;;0.25;0.25;;;23.00;55.30;;;;;;6180749;28;20039;-68
2022/07/28 04:49:12;;;;;;;0.70;0.38;;;23.00;55.20;;;;;;6168061;28;20174;-68
2022/07/28 04:52:14;;;;;;;1.10;0.50;;;23.00;55.20;;;;;;6186786;28;20327;-67
2022/07/28 04:55:16;;;;;;;0.47;0.30;;;23.00;55.20;;;;;;6191454;28;20626;-68
2022/07/28 04:58:17;;;;;;;0.43;0.30;;;23.00;55.20;;;;;;6191690;28;20018;-68
2022/07/28 05:01:18;;;;;;;0.50;0.30;;;23.00;55.20;;;;;;6190866;28;20492;-68
2022/07/28 05:04:18;;;;;;;0.55;0.35;;;23.00;55.20;;;;;;6191493;28;20038;-68
2022/07/28 05:07:19;;;;;;;0.30;0.30;;;23.00;55.20;;;;;;6191566;28;20018;-68
2022/07/28 05:10:20;;;;;;;0.50;0.40;;;23.00;55.20;;;;;;6191276;28;20018;-68
2022/07/28 05:13:20;;;;;;;0.63;0.50;;;23.00;55.20;;;;;;6191769;28;20485;-68
2022/07/28 05:16:21;;;;;;;0.30;0.30;;;23.00;55.30;;;;;;6183072;28;20097;-67
2022/07/28 05:19:22;;;;;;;0.73;0.40;;;23.00;55.20;;;;;;6167536;28;20170;-68
2022/07/28 05:22:22;;;;;;;0.43;0.40;;;23.00;55.20;;;;;;6183253;28;20026;-68
2022/07/28 05:25:24;;;;;;;0.32;0.30;;;23.00;55.20;;;;;;6191467;28;20026;-68
2022/07/28 05:28:25;;;;;;;0.85;0.40;;;23.00;55.20;;;;;;6168383;28;20038;-67
2022/07/28 05:31:26;;;;;;;1.40;0.45;;;23.00;55.30;;;;;;6173912;28;20058;-68
2022/07/28 05:34:26;;;;;;;0.40;0.40;;;23.00;55.30;;;;;;6191164;28;20023;-67
2022/07/28 05:37:27;;;;;;;0.55;0.30;;;23.00;55.30;;;;;;6177175;28;20252;-68
2022/07/28 05:40:28;;;;;;;0.40;0.40;;;23.00;55.30;;;;;;6177481;28;20394;-67
2022/07/28 05:43:29;;;;;;;0.65;0.30;;;23.00;55.30;;;;;;6169028;28;20076;-68
2022/07/28 05:46:30;;;;;;;0.28;0.28;;;23.00;55.30;;;;;;6172573;28;20026;-67
2022/07/28 05:49:30;;;;;;;0.40;0.32;;;23.00;55.30;;;;;;6191124;28;20050;-68
2022/07/28 05:52:31;;;;;;;0.30;0.30;;;23.00;55.30;;;;;;6178099;28;20033;-67
2022/07/28 05:55:32;;;;;;;0.52;0.40;;;23.00;55.30;;;;;;6184613;28;20027;-68
2022/07/28 05:58:32;;;;;;;0.35;0.30;;;23.00;55.30;;;;;;6191119;28;20023;-68
2022/07/28 06:01:37;;;;;;;0.85;0.40;;;23.00;55.20;;;;;;6192034;28;20374;-68
2022/07/28 06:04:38;;;;;;;0.50;0.20;;;23.00;55.30;;;;;;6192915;28;20525;-68
2022/07/28 06:07:38;;;;;;;0.52;0.40;;;23.00;55.30;;;;;;6193031;28;20037;-68
2022/07/28 06:13:58;;;;;;;0.68;0.40;;;23.00;55.30;;;;;;6190629;28;20027;-67
2022/07/28 06:16:58;;;;;;;0.20;0.20;;;23.00;55.30;;;;;;6187934;28;20101;-68
2022/07/28 06:19:59;;;;;;;0.40;0.30;;;23.00;55.30;;;;;;6169544;28;20130;-67
2022/07/28 06:23:00;;;;;;;0.50;0.32;;;23.00;55.30;;;;;;6186220;28;20034;-67
2022/07/28 06:26:00;;;;;;;0.40;0.40;;;23.00;55.30;;;;;;6197207;28;20034;-68
2022/07/28 06:29:01;;;;;;;0.30;0.30;;;23.00;55.30;;;;;;6177120;28;20057;-68
2022/07/28 06:32:02;;;;;;;0.63;0.40;;;23.00;55.30;;;;;;6176340;28;20046;-68
2022/07/28 06:35:03;;;;;;;0.45;0.32;;;23.00;55.30;;;;;;6197192;28;20388;-67
2022/07/28 06:38:04;;;;;;;0.43;0.40;;;23.00;55.30;;;;;;6186209;28;20019;-67
2022/07/28 06:41:04;;;;;;;0.52;0.30;;;23.00;55.30;;;;;;6188113;28;20476;-67
2022/07/28 06:44:05;;;;;;;0.70;0.40;;;23.00;55.30;;;;;;6178211;28;20098;-68
2022/07/28 06:47:06;;;;;;;0.73;0.38;;;23.00;55.30;;;;;;6174914;28;20452;-68
2022/07/28 06:50:07;;;;;;;0.32;0.30;;;23.00;55.30;;;;;;6197027;28;20083;-68
2022/07/28 06:53:08;;;;;;;0.70;0.38;;;23.00;55.30;;;;;;6187272;28;20031;-68
2022/07/28 06:56:08;;;;;;;0.30;0.30;;;23.00;55.30;;;;;;6195018;28;20023;-67
2022/07/28 06:59:09;;;;;;;1.10;0.40;;;23.00;55.30;;;;;;6196685;28;20129;-67
2022/07/28 07:02:10;;;;;;;0.55;0.20;;;23.00;55.30;;;;;;6195760;28;20018;-68
2022/07/28 07:05:11;;;;;;;0.45;0.30;;;23.00;55.30;;;;;;6172606;28;20034;-68
2022/07/28 07:08:12;;;;;;;0.43;0.30;;;23.00;55.30;;;;;;6180423;28;20026;-67
2022/07/28 07:11:12;;;;;;;2.03;0.57;;;23.00;55.30;;;;;;6196596;28;20049;-68
2022/07/28 07:14:13;;;;;;;0.47;0.40;;;23.00;55.30;;;;;;6180166;28;20030;-67
2022/07/28 07:17:13;;;;;;;0.38;0.38;;;23.00;55.30;;;;;;6172492;28;20023;-68
2022/07/28 07:20:14;;;;;;;0.40;0.30;;;23.00;55.30;;;;;;6195568;28;20505;-67
2022/07/28 07:23:15;;;;;;;0.57;0.30;;;23.00;55.30;;;;;;6189252;28;20046;-67
2022/07/28 07:26:15;;;;;;;0.40;0.40;;;23.00;55.30;;;;;;6191230;28;20033;-68
2022/07/28 07:29:16;;;;;;;0.40;0.20;;;23.00;56.10;;;;;;6195993;28;20022;-68
2022/07/28 07:32:16;;;;;;;0.50;0.47;;;23.00;55.40;;;;;;6195325;28;20343;-68
2022/07/28 07:35:17;;;;;;;0.22;0.20;;;23.00;55.30;;;;;;6173840;28;20388;-68
2022/07/28 07:38:18;;;;;;;0.90;0.50;;;23.00;55.40;;;;;;6176784;28;20061;-68
2022/07/28 07:41:19;;;;;;;0.70;0.30;;;23.00;55.30;;;;;;6179084;28;20023;-68
2022/07/28 07:44:19;;;;;;;0.63;0.38;;;23.00;55.30;;;;;;6183971;28;20446;-68
2022/07/28 07:47:20;;;;;;;0.32;0.30;;;23.00;55.30;;;;;;6195384;28;20093;-68
2022/07/28 07:50:21;;;;;;;0.50;0.40;;;23.00;55.40;;;;;;6186169;28;20058;-68
2022/07/28 07:53:23;;;;;;;0.40;0.30;;;23.00;55.30;;;;;;6171661;28;20027;-68
2022/07/28 07:56:23;;;;;;;0.77;0.30;;;23.00;55.40;;;;;;6171020;28;20037;-68
2022/07/28 07:59:24;;;;;;;0.40;0.38;;;23.00;55.40;;;;;;6171192;28;20026;-68
2022/07/28 08:02:24;;;;;;;0.45;0.32;;;23.00;55.40;;;;;;6171156;28;20077;-67
2022/07/28 08:05:25;;;;;;;0.85;0.45;;;23.00;55.40;;;;;;6171860;28;20026;-68
2022/07/28 08:08:26;;;;;;;0.30;0.30;;;23.00;55.40;;;;;;6170863;28;20050;-67
2022/07/28 08:11:27;;;;;;;0.82;0.20;;;23.00;55.40;;;;;;6171471;28;20577;-66
2022/07/28 08:14:27;;;;;;;0.60;0.30;;;23.00;55.40;;;;;;6170702;28;20429;-68
2022/07/28 08:17:28;;;;;;;0.30;0.30;;;23.00;55.40;;;;;;6170414;28;20035;-67
2022/07/28 08:20:28;;;;;;;0.50;0.40;;;23.00;55.40;;;;;;6171343;28;20053;-67
2022/07/28 08:23:29;;;;;;;0.30;0.28;;;23.00;55.40;;;;;;6170384;28;20031;-68
2022/07/28 08:26:30;;;;;;;0.40;0.35;;;23.00;55.40;;;;;;6161394;28;20110;-67
2022/07/28 08:29:31;;;;;;;0.82;0.40;;;23.00;55.40;;;;;;6170608;28;20015;-68
2022/07/28 08:32:31;;;;;;;0.28;0.20;;;23.00;55.40;;;;;;6169768;28;20030;-67
2022/07/28 08:35:32;;;;;;;1.00;0.25;;;23.00;55.40;;;;;;6170244;28;20488;-67
2022/07/28 08:38:33;;;;;;;0.73;0.40;;;23.00;55.40;;;;;;6170891;28;20082;-68
2022/07/28 08:42:12;;;;;;;1.08;0.30;;;23.00;55.40;;;;;;6170296;28;20453;-68
2022/07/28 08:45:14;;;;;;;0.38;0.30;;;23.00;55.20;;;;;;6169450;28;20513;-68
2022/07/28 08:48:17;;;;;;;1.42;0.50;;;23.00;55.00;;;;;;6161637;28;20054;-68
2022/07/28 08:51:18;;;;;;;1.92;0.65;;;23.00;54.80;;;;;;6188120;28;20057;-68
2022/07/28 08:54:25;;;;;;;0.88;0.30;;;23.00;54.50;;;;;;6191948;28;20030;-68
2022/07/28 08:57:41;;;;;;;0.90;0.38;;;22.90;54.60;;;;;;6194633;28;20045;-68
2022/07/28 09:00:42;;;;;;;4.00;1.05;;;23.00;55.50;;;;;;6175537;28;20033;-68
2022/07/28 09:03:43;;;;;;;5.32;0.98;;;22.90;50.60;;;;;;6193962;28;20030;-67
2022/07/28 09:06:44;;;;;;;1.38;0.73;;;23.00;50.10;;;;;;6195218;28;20026;-68
2022/07/28 09:09:47;;;;;;;2.38;0.52;;;23.00;50.50;;;;;;6189768;28;20052;-67
2022/07/28 09:12:48;;;;;;;1.88;0.70;;;23.00;53.20;;;;;;6184872;28;20506;-67
2022/07/28 09:15:48;;;;;;;4.47;0.80;;;23.10;53.40;;;;;;6185277;28;20034;-67
2022/07/28 09:18:49;;;;;;;5.25;0.88;;;23.10;53.80;;;;;;6158562;28;20048;-66
2022/07/28 09:21:50;;;;;;;2.00;0.80;;;23.10;53.70;;;;;;6173762;28;20027;-68
2022/07/28 09:24:51;;;;;;;1.20;0.70;;;23.10;53.70;;;;;;6178091;28;20114;-67
2022/07/28 09:27:52;;;;;;;4.82;0.75;;;23.10;52.70;;;;;;6193510;28;20092;-67
2022/07/28 09:30:53;;;;;;;3.42;0.60;;;23.10;52.60;;;;;;6193955;28;20037;-67
2022/07/28 09:34:02;;;;;;;1.38;0.50;;;23.10;52.90;;;;;;6170371;28;20014;-67
2022/07/28 09:37:02;;;;;;;1.08;0.50;;;23.10;54.30;;;;;;6190186;28;20456;-67
2022/07/28 09:40:10;;;;;;;2.75;0.60;;;23.10;54.50;;;;;;6191117;28;20088;-67
2022/07/28 09:43:10;;;;;;;1.20;0.50;;;23.10;54.60;;;;;;6169503;28;20371;-67
2022/07/28 09:46:20;;;;;;;1.55;0.52;;;23.10;54.70;;;;;;6181297;28;20045;-67
2022/07/28 09:49:21;;;;;;;1.20;0.60;;;23.10;54.70;;;;;;6193721;28;20105;-67
2022/07/28 09:52:29;;;;;;;0.73;0.47;;;23.10;54.80;;;;;;6173753;28;20027;-67
2022/07/28 09:55:34;;;;;;;1.08;0.60;;;23.10;54.80;;;;;;6190390;28;20022;-67
2022/07/28 09:58:35;;;;;;;0.95;0.50;;;23.10;54.80;;;;;;6198645;28;20030;-67
2022/07/28 10:01:57;;;;;;;2.88;0.35;;;23.10;54.90;;;;;;6186406;28;20035;-66
2022/07/28 10:04:59;;;;;;;0.75;0.35;;;23.10;54.90;;;;;;6174342;28;20027;-67
2022/07/28 10:07:59;;;;;;;1.95;0.55;;;23.10;54.80;;;;;;6181274;28;20026;-67
2022/07/28 10:11:01;;;;;;;1.67;0.60;;;23.10;54.80;;;;;;6191880;28;20042;-67
2022/07/28 10:14:04;;;;;;;1.30;0.50;;;23.10;54.80;;;;;;6174263;28;20019;-67
2022/07/28 10:17:05;;;;;;;2.10;0.45;;;23.10;54.80;;;;;;6189009;28;20033;-67
2022/07/28 10:20:07;;;;;;;1.13;0.47;;;23.10;54.70;;;;;;6198116;28;20442;-67
2022/07/28 10:23:11;;;;;;;1.30;0.70;;;23.10;54.80;;;;;;6175888;28;20050;-67
2022/07/28 10:26:13;;;;;;;1.50;0.43;;;23.10;54.70;;;;;;6193224;28;20473;-67
2022/07/28 10:29:20;;;;;;;1.60;0.60;;;23.10;54.80;;;;;;6198161;28;20053;-67
2022/07/28 10:32:21;;;;;;;1.58;0.73;;;23.20;54.90;;;;;;6183279;28;20284;-67
2022/07/28 10:35:24;;;;;;;3.13;0.50;;;23.20;54.90;;;;;;6174286;28;20107;-67
2022/07/28 10:38:33;;;;;;;1.50;0.50;;;23.20;54.90;;;;;;6195848;28;20026;-67
2022/07/28 10:41:39;;;;;;;1.13;0.50;;;23.20;54.90;;;;;;6185848;28;20474;-68
2022/07/28 10:44:42;;;;;;;0.93;0.40;;;23.10;54.80;;;;;;6198138;28;20056;-67
2022/07/28 10:47:44;;;;;;;1.42;0.50;;;23.10;54.80;;;;;;6182468;28;20033;-67
2022/07/28 10:50:45;;;;;;;0.70;0.45;;;23.20;55.00;;;;;;6173166;28;20387;-67
2022/07/28 10:53:54;;;;;;;0.98;0.50;;;23.20;55.00;;;;;;6197067;28;20034;-67
2022/07/28 10:56:57;;;;;;;0.57;0.30;;;23.20;55.00;;;;;;6197659;28;20021;-67
2022/07/28 11:00:07;;;;;;;0.88;0.50;;;23.20;55.00;;;;;;6197454;28;20030;-67
2022/07/28 11:03:08;;;;;;;0.52;0.30;;;23.20;55.00;;;;;;6197142;28;20047;-67
2022/07/28 11:06:34;;;;;;;0.60;0.45;;;23.20;55.00;;;;;;6196347;28;20477;-67
2022/07/28 11:09:35;;;;;;;1.02;0.60;;;23.10;54.90;;;;;;6172679;28;20506;-67
2022/07/28 11:12:56;;;;;;;1.02;0.50;;;23.20;55.00;;;;;;6184172;28;20037;-67
2022/07/28 11:16:19;;;;;;;0.90;0.50;;;23.10;54.90;;;;;;6196956;28;20042;-67
2022/07/28 11:19:19;;;;;;;0.73;0.50;;;23.20;55.00;;;;;;6172705;28;20026;-67
2022/07/28 11:22:26;;;;;;;0.50;0.40;;;23.20;55.00;;;;;;6180373;28;20060;-67
2022/07/28 11:25:27;;;;;;;0.60;0.40;;;23.20;55.00;;;;;;6196579;28;20046;-67
2022/07/28 11:28:28;;;;;;;0.40;0.38;;;23.20;55.10;;;;;;6197006;28;20390;-67
2022/07/28 11:31:44;;;;;;;0.60;0.40;;;23.10;55.00;;;;;;6192543;28;20362;-67
2022/07/28 11:35:05;;;;;;;0.65;0.50;;;23.20;55.10;;;;;;6172259;28;20023;-67
2022/07/28 11:38:08;;;;;;;0.68;0.45;;;23.20;55.00;;;;;;6184460;28;20145;-67
2022/07/28 11:41:28;;;;;;;0.93;0.50;;;23.20;55.10;;;;;;6196315;28;20062;-67
2022/07/28 11:44:31;;;;;;;0.70;0.50;;;23.20;55.10;;;;;;6196219;28;20497;-66
2022/07/28 11:47:32;;;;;;;0.55;0.40;;;23.10;55.00;;;;;;6190593;28;20497;-67
2022/07/28 11:50:33;;;;;;;0.82;0.32;;;23.20;55.10;;;;;;6171911;28;20047;-67
2022/07/28 11:53:36;;;;;;;0.32;0.32;;;23.20;55.10;;;;;;6185593;28;20037;-67
2022/07/28 11:56:38;;;;;;;0.60;0.40;;;23.10;55.00;;;;;;6195938;28;20413;-67
2022/07/28 11:59:42;;;;;;;0.73;0.55;;;23.10;55.00;;;;;;6195954;28;20045;-67
2022/07/28 12:02:43;;;;;;;3.17;0.30;;;23.10;55.00;;;;;;6195919;28;20018;-67
2022/07/28 12:05:56;;;;;;;0.40;0.25;;;23.10;55.00;;;;;;6196029;28;20066;-67
2022/07/28 12:09:01;;;;;;;0.43;0.30;;;23.10;55.70;;;;;;6177278;28;20026;-67
2022/07/28 12:12:02;;;;;;;0.40;0.40;;;23.20;55.10;;;;;;6176683;28;20385;-67
2022/07/28 12:15:03;;;;;;;0.40;0.40;;;23.20;55.10;;;;;;6192864;28;20046;-66
2022/07/28 12:18:09;;;;;;;0.60;0.40;;;23.20;55.10;;;;;;6193409;28;20593;-67
2022/07/28 12:21:09;;;;;;;0.40;0.38;;;23.20;55.10;;;;;;6180949;28;20022;-67
2022/07/28 12:24:12;;;;;;;0.40;0.40;;;23.10;55.70;;;;;;6184635;28;20034;-67
2022/07/28 12:27:13;;;;;;;0.55;0.50;;;23.10;55.10;;;;;;6183905;28;20416;-67
2022/07/28 12:30:27;;;;;;;0.30;0.30;;;23.20;55.10;;;;;;6194669;28;20019;-67
2022/07/28 12:33:27;;;;;;;0.68;0.40;;;23.10;55.10;;;;;;6186999;28;20058;-67
2022/07/28 12:36:29;;;;;;;0.40;0.30;;;23.10;55.10;;;;;;6170722;28;20026;-67
2022/07/28 12:39:40;;;;;;;0.30;0.30;;;23.10;55.10;;;;;;6338084;27;20372;-67
2022/07/28 12:42:41;;;;;;;1.02;0.30;;;23.10;55.10;;;;;;6338179;28;20044;-67
2022/07/28 12:45:44;;;;;;;0.40;0.30;;;23.10;55.10;;;;;;6337858;28;20039;-67
2022/07/28 12:48:47;;;;;;;0.30;0.30;;;23.10;55.10;;;;;;6338274;28;20471;-67
2022/07/28 12:51:48;;;;;;;0.30;0.25;;;23.10;55.10;;;;;;6356373;28;20031;-67
2022/07/28 12:54:49;;;;;;;0.57;0.40;;;23.10;55.10;;;;;;6338312;28;20050;-67
2022/07/28 12:57:51;;;;;;;0.68;0.30;;;23.10;55.10;;;;;;6339030;28;20040;-67
2022/07/28 13:00:54;;;;;;;0.32;0.32;;;23.10;55.10;;;;;;6337449;28;20050;-67
2022/07/28 13:03:54;;;;;;;0.30;0.30;;;23.10;55.10;;;;;;6331522;28;20366;-67
2022/07/28 13:06:55;;;;;;;0.45;0.32;;;23.10;55.10;;;;;;6337677;28;20030;-67
2022/07/28 13:10:08;;;;;;;0.85;0.52;;;23.10;55.10;;;;;;6326258;28;20031;-67
2022/07/28 13:13:08;;;;;;;0.43;0.40;;;23.10;55.10;;;;;;6329760;28;20028;-67
2022/07/28 13:16:19;;;;;;;0.35;0.35;;;23.20;55.20;;;;;;6335706;28;20539;-66
2022/07/28 13:19:20;;;;;;;0.68;0.38;;;23.20;55.10;;;;;;6329819;28;20483;-67
2022/07/28 13:22:26;;;;;;;0.65;0.40;;;23.20;55.10;;;;;;6331178;28;20042;-67
2022/07/28 13:25:27;;;;;;;0.52;0.30;;;23.20;55.10;;;;;;6333464;28;20031;-67
2022/07/28 13:28:28;;;;;;;0.30;0.30;;;23.20;55.10;;;;;;6360301;28;20311;-67
2022/07/28 13:31:30;;;;;;;0.65;0.40;;;23.30;55.10;;;;;;6336531;28;20023;-68
2022/07/28 13:34:31;;;;;;;0.70;0.32;;;23.20;55.10;;;;;;6336857;28;20479;-67
2022/07/28 13:37:32;;;;;;;4.60;0.38;;;23.20;55.30;;;;;;6336980;28;20131;-67
2022/07/28 13:40:32;;;;;;;2.30;0.43;;;23.20;53.40;;;;;;6336547;28;20062;-67
2022/07/28 13:43:33;;;;;;;3.15;0.38;;;23.20;52.30;;;;;;6337199;28;20331;-67
2022/07/28 13:46:34;;;;;;;0.52;0.20;;;23.30;52.00;;;;;;6336722;28;20031;-67
2022/07/28 13:49:37;;;;;;;8.65;0.40;;;23.40;51.30;;;;;;6327800;28;20018;-67
2022/07/28 13:52:38;;;;;;;1.67;0.50;;;23.50;50.20;;;;;;6319379;28;20054;-67
2022/07/28 13:55:39;;;;;;;2.00;0.50;;;23.60;49.50;;;;;;6333229;28;20028;-67
2022/07/28 13:58:39;;;;;;;3.58;0.60;;;23.60;48.20;;;;;;6344643;28;20115;-67
2022/07/28 14:01:41;;;;;;;1.83;0.52;;;23.70;48.50;;;;;;6322228;28;20060;-67
2022/07/28 14:04:42;;;;;;;0.55;0.32;;;23.80;48.70;;;;;;6319114;28;20032;-67
2022/07/28 14:07:43;;;;;;;3.53;0.65;;;23.80;48.40;;;;;;6319383;28;20103;-67
2022/07/28 14:10:45;;;;;;;3.17;0.80;;;23.80;48.40;;;;;;6319348;28;20089;-67
2022/07/28 14:13:46;;;;;;;1.20;0.60;;;23.90;48.50;;;;;;6319692;28;20463;-67
2022/07/28 14:16:46;;;;;;;2.28;0.95;;;23.90;46.80;;;;;;6318969;28;20062;-67
2022/07/28 14:19:47;;;;;;;0.93;0.50;;;23.80;46.70;;;;;;6319143;28;20024;-67
2022/07/28 14:22:48;;;;;;;1.70;0.77;;;23.90;47.00;;;;;;6318499;28;20024;-67
2022/07/28 14:25:49;;;;;;;2.40;0.85;;;23.90;47.10;;;;;;6318497;28;20024;-67
2022/07/28 14:28:49;;;;;;;2.85;0.90;;;23.90;47.40;;;;;;6319006;28;20024;-67
2022/07/28 14:31:50;;;;;;;1.52;0.60;;;23.90;47.10;;;;;;6318515;28;20426;-67
2022/07/28 14:34:50;;;;;;;1.83;0.68;;;23.90;46.90;;;;;;6318921;28;20032;-67
2022/07/28 14:37:51;;;;;;;3.78;0.70;;;23.90;46.80;;;;;;6318135;28;20063;-67
2022/07/28 14:40:52;;;;;;;1.30;0.73;;;23.90;46.30;;;;;;6318490;28;20382;-67
2022/07/28 14:43:55;;;;;;;1.13;0.55;;;23.90;46.70;;;;;;6317919;28;20032;-67
2022/07/28 14:46:55;;;;;;;2.70;0.80;;;23.90;46.80;;;;;;6318247;28;20023;-67
2022/07/28 14:49:56;;;;;;;1.08;0.65;;;24.00;46.80;;;;;;6318668;28;20491;-67
2022/07/28 14:52:57;;;;;;;1.92;0.60;;;24.00;46.80;;;;;;6318144;28;20431;-67
2022/07/28 14:55:58;;;;;;;2.95;0.82;;;23.90;46.80;;;;;;6325801;28;20037;-67
2022/07/28 14:58:58;;;;;;;2.67;0.60;;;24.00;46.60;;;;;;6318834;28;20036;-67
2022/07/28 15:01:59;;;;;;;4.18;0.90;;;24.00;46.40;;;;;;6316991;28;20032;-67
2022/07/28 15:05:00;;;;;;;3.17;0.80;;;24.00;46.30;;;;;;6317769;28;20048;-67
2022/07/28 15:08:01;;;;;;;1.92;0.73;;;24.00;46.20;;;;;;6317791;28;20474;-67
2022/07/28 15:11:01;;;;;;;1.65;0.60;;;24.00;46.20;;;;;;6318259;28;20028;-67
2022/07/28 15:14:03;;;;;;;1.83;0.70;;;23.90;46.10;;;;;;6317636;28;20463;-67
2022/07/28 15:17:03;;;;;;;1.63;0.70;;;24.00;46.20;;;;;;6317365;28;20028;-67
2022/07/28 15:20:05;;;;;;;2.70;1.10;;;24.00;46.30;;;;;;6317955;28;20050;-66
2022/07/28 15:23:07;;;;;;;1.88;0.77;;;24.00;45.90;;;;;;6316422;28;20499;-66
2022/07/28 15:26:08;;;;;;;2.83;0.90;;;23.90;45.80;;;;;;6316539;28;20456;-67
2022/07/28 15:29:09;;;;;;;0.98;0.40;;;24.00;46.00;;;;;;6317860;28;20498;-67
2022/07/28 15:32:10;;;;;;;2.67;0.77;;;23.90;46.00;;;;;;6327003;28;20019;-67
2022/07/28 15:35:10;;;;;;;2.10;0.90;;;23.90;45.80;;;;;;6343240;28;20437;-67
2022/07/28 15:38:11;;;;;;;2.60;0.82;;;24.00;46.10;;;;;;6320786;28;20048;-67
2022/07/28 15:41:12;;;;;;;1.35;0.70;;;24.00;46.30;;;;;;6317475;28;20103;-67
2022/07/28 15:44:14;;;;;;;2.95;0.75;;;24.00;46.40;;;;;;6316373;28;20103;-67
2022/07/28 15:47:14;;;;;;;2.42;0.70;;;24.00;46.50;;;;;;6317772;28;20346;-67
2022/07/28 15:50:15;;;;;;;2.58;0.80;;;24.00;46.60;;;;;;6292618;28;20066;-67
2022/07/28 15:53:16;;;;;;;1.02;0.47;;;24.00;46.60;;;;;;6311916;28;20020;-67
2022/07/28 15:56:17;;;;;;;1.55;0.75;;;24.00;46.60;;;;;;6314722;28;20059;-67